createdAt,value
2023-01-17T00:01:29.767Z,98412.97
2023-01-17T00:04:06.803Z,98415.91
2023-01-17T00:06:43.779Z,98420.31
2023-01-17T00:09:21.644Z,98413.63
2023-01-17T00:11:48.556Z,98408.28
2023-01-17T00:14:15.493Z,98422.09
2023-01-17T00:16:42.560Z,98420.31
2023-01-17T00:19:18.748Z,98418.53
2023-01-17T00:21:55.593Z,98410.22
2023-01-17T00:24:31.703Z,98415.44
2023-01-17T00:27:08.807Z,98413.47
2023-01-17T00:29:35.837Z,98409.09
2023-01-17T00:32:02.807Z,98412.19
2023-01-17T00:34:29.749Z,98407.00
2023-01-17T00:36:56.670Z,98401.81
2023-01-17T00:39:23.578Z,98399.84
2023-01-17T00:41:50.548Z,98394.63
2023-01-17T00:44:26.569Z,98385.41
2023-01-17T00:47:03.249Z,98387.53
2023-01-17T00:49:39.495Z,98384.94
2023-01-17T00:52:15.395Z,98394.16
2023-01-17T00:54:51.692Z,98398.56
2023-01-17T00:57:28.557Z,98393.69
2023-01-17T01:00:04.581Z,98393.03
2023-01-17T01:02:42.653Z,98389.97
2023-01-17T01:05:19.667Z,98389.00
2023-01-17T01:07:56.816Z,98385.59
2023-01-17T01:10:33.736Z,98386.22
2023-01-17T01:13:10.676Z,98387.88
2023-01-17T01:15:47.875Z,98378.13
2023-01-17T01:18:24.647Z,98379.91
2023-01-17T01:21:01.937Z,98377.97
2023-01-17T01:23:38.797Z,98377.16
2023-01-17T01:26:15.542Z,98377.97
2023-01-17T01:28:52.825Z,98378.31
2023-01-17T01:31:29.882Z,98383.00
2023-01-17T01:33:56.908Z,98381.72
2023-01-17T01:36:23.757Z,98378.97
2023-01-17T01:38:50.789Z,98375.22
2023-01-17T01:41:18.245Z,98371.66
2023-01-17T01:43:46.273Z,98366.28
2023-01-17T01:46:16.341Z,98371.34
2023-01-17T01:48:50.887Z,98366.44
2023-01-17T01:51:20.244Z,98368.25
2023-01-17T01:53:51.877Z,98369.41
2023-01-17T01:56:20.495Z,98369.72
2023-01-17T01:58:49.908Z,98382.53
2023-01-17T02:01:18.419Z,98373.31
2023-01-17T02:03:46.201Z,98368.78
2023-01-17T02:06:20.540Z,98367.31
2023-01-17T02:08:48.243Z,98374.94
2023-01-17T02:11:16.025Z,98378.84
2023-01-17T02:13:43.586Z,98379.16
2023-01-17T02:16:11.858Z,98382.09
2023-01-17T02:18:39.197Z,98391.22
2023-01-17T02:21:15.878Z,98393.16
2023-01-17T02:23:44.900Z,98390.22
2023-01-17T02:26:22.058Z,98382.44
2023-01-17T02:28:52.089Z,98379.69
2023-01-17T02:31:27.221Z,98375.13
2023-01-17T02:34:07.258Z,98372.72
2023-01-17T02:36:37.301Z,98367.53
2023-01-17T02:39:09.185Z,98370.28
2023-01-17T02:41:38.556Z,98376.28
2023-01-17T02:44:05.479Z,98372.88
2023-01-17T02:46:32.646Z,98369.47
2023-01-17T02:49:00.956Z,98376.94
2023-01-17T02:51:28.088Z,98369.31
2023-01-17T02:54:04.798Z,98374.50
2023-01-17T02:56:40.970Z,98377.09
2023-01-17T02:59:09.109Z,98369.78
2023-01-17T03:01:46.020Z,98375.63
2023-01-17T03:04:18.487Z,98364.75
2023-01-17T03:06:49.345Z,98362.34
2023-01-17T03:09:17.765Z,98363.16
2023-01-17T03:11:44.798Z,98363.31
2023-01-17T03:14:12.816Z,98352.09
2023-01-17T03:16:40.038Z,98351.13
2023-01-17T03:19:07.048Z,98353.06
2023-01-17T03:21:34.002Z,98351.78
2023-01-17T03:24:00.961Z,98350.50
2023-01-17T03:26:27.966Z,98349.03
2023-01-17T03:28:54.797Z,98354.22
2023-01-17T03:31:21.876Z,98347.44
2023-01-17T03:33:48.817Z,98338.84
2023-01-17T03:36:15.688Z,98334.63
2023-01-17T03:38:42.719Z,98340.13
2023-01-17T03:41:09.601Z,98338.84
2023-01-17T03:43:36.637Z,98347.94
2023-01-17T03:46:05.012Z,98341.28
2023-01-17T03:48:32.460Z,98348.28
2023-01-17T03:50:59.358Z,98344.03
2023-01-17T03:53:26.564Z,98345.66
2023-01-17T03:55:53.491Z,98345.66
2023-01-17T03:58:20.795Z,98337.53
2023-01-17T04:00:47.744Z,98337.38
2023-01-17T04:03:14.808Z,98336.44
2023-01-17T04:05:41.761Z,98337.38
2023-01-17T04:08:08.800Z,98342.88
2023-01-17T04:10:35.667Z,98352.94
2023-01-17T04:13:02.485Z,98342.91
2023-01-17T04:15:29.351Z,98337.25
2023-01-17T04:17:56.324Z,98340.97
2023-01-17T04:20:31.267Z,98338.53
2023-01-17T04:22:58.135Z,98341.63
2023-01-17T04:25:26.035Z,98338.22
2023-01-17T04:27:53.496Z,98329.47
2023-01-17T04:30:20.490Z,98333.84
2023-01-17T04:32:47.849Z,98333.19
2023-01-17T04:35:14.783Z,98328.34
2023-01-17T04:37:41.770Z,98330.28
2023-01-17T04:40:09.460Z,98325.41
2023-01-17T04:42:36.406Z,98330.91
2023-01-17T04:45:03.667Z,98323.13
2023-01-17T04:47:30.694Z,98325.09
2023-01-17T04:49:57.734Z,98326.22
2023-01-17T04:52:25.769Z,98331.75
2023-01-17T04:54:53.326Z,98336.41
2023-01-17T04:57:20.435Z,98323.94
2023-01-17T04:59:47.597Z,98320.53
2023-01-17T05:02:14.799Z,98321.53
2023-01-17T05:04:41.751Z,98323.31
2023-01-17T05:07:08.723Z,98323.31
2023-01-17T05:09:35.696Z,98315.69
2023-01-17T05:12:02.573Z,98320.72
2023-01-17T05:14:29.601Z,98303.69
2023-01-17T05:16:57.284Z,98314.06
2023-01-17T05:19:24.959Z,98316.84
2023-01-17T05:21:51.906Z,98317.00
2023-01-17T05:24:19.231Z,98314.41
2023-01-17T05:26:46.356Z,98323.81
2023-01-17T05:29:13.117Z,98318.75
2023-01-17T05:31:39.877Z,98322.31
2023-01-17T05:34:06.700Z,98310.19
2023-01-17T05:36:33.461Z,98307.25
2023-01-17T05:39:00.201Z,98298.34
2023-01-17T05:41:26.931Z,98298.00
2023-01-17T05:43:53.631Z,98301.25
2023-01-17T05:46:20.402Z,98314.06
2023-01-17T05:48:47.165Z,98314.06
2023-01-17T05:51:14.086Z,98306.44
2023-01-17T05:53:40.792Z,98305.63
2023-01-17T05:56:07.651Z,98318.44
2023-01-17T05:58:34.519Z,98319.41
2023-01-17T06:01:01.707Z,98321.19
2023-01-17T06:03:28.526Z,98323.78
2023-01-17T06:05:55.307Z,98326.38
2023-01-17T06:08:23.638Z,98318.13
2023-01-17T06:10:50.477Z,98328.31
2023-01-17T06:13:21.085Z,98333.34
2023-01-17T06:15:48.092Z,98331.41
2023-01-17T06:18:16.363Z,98330.59
2023-01-17T06:20:43.671Z,98333.66
2023-01-17T06:23:12.032Z,98332.69
2023-01-17T06:25:39.085Z,98333.19
2023-01-17T06:28:07.659Z,98337.25
2023-01-17T06:30:34.735Z,98328.50
2023-01-17T06:33:01.829Z,98331.09
2023-01-17T06:35:29.242Z,98333.19
2023-01-17T06:37:56.206Z,98334.97
2023-01-17T06:40:22.996Z,98336.44
2023-01-17T06:42:49.752Z,98338.22
2023-01-17T06:45:16.643Z,98343.09
2023-01-17T06:47:43.596Z,98347.94
2023-01-17T06:50:12.581Z,98345.19
2023-01-17T06:52:39.592Z,98341.31
2023-01-17T06:55:07.201Z,98342.44
2023-01-17T06:57:33.997Z,98334.47
2023-01-17T07:00:00.916Z,98329.28
2023-01-17T07:02:27.649Z,98331.56
2023-01-17T07:04:54.514Z,98341.78
2023-01-17T07:07:21.356Z,98336.09
2023-01-17T07:09:48.094Z,98339.03
2023-01-17T07:12:14.991Z,98337.56
2023-01-17T07:14:41.777Z,98328.34
2023-01-17T07:17:08.591Z,98333.81
2023-01-17T07:19:35.468Z,98337.56
2023-01-17T07:22:02.222Z,98336.28
2023-01-17T07:24:29.161Z,98340.97
2023-01-17T07:26:55.961Z,98353.78
2023-01-17T07:29:22.836Z,98348.25
2023-01-17T07:31:49.740Z,98351.81
2023-01-17T07:34:16.823Z,98352.47
2023-01-17T07:36:43.695Z,98337.88
2023-01-17T07:39:14.271Z,98346.81
2023-01-17T07:41:41.603Z,98352.00
2023-01-17T07:44:09.062Z,98350.22
2023-01-17T07:46:35.903Z,98351.03
2023-01-17T07:49:03.192Z,98354.72
2023-01-17T07:51:30.018Z,98352.47
2023-01-17T07:53:56.931Z,98359.09
2023-01-17T07:56:24.150Z,98358.81
2023-01-17T07:58:51.104Z,98361.72
2023-01-17T08:01:18.077Z,98366.44
2023-01-17T08:03:44.993Z,98356.84
2023-01-17T08:06:13.058Z,98363.00
2023-01-17T08:08:39.945Z,98366.56
2023-01-17T08:11:06.892Z,98362.53
2023-01-17T08:13:33.734Z,98365.47
2023-01-17T08:16:02.673Z,98362.06
2023-01-17T08:18:29.995Z,98362.22
2023-01-17T08:20:57.052Z,98362.88
2023-01-17T08:23:24.064Z,98362.53
2023-01-17T08:25:50.861Z,98364.47
2023-01-17T08:28:18.219Z,98366.91
2023-01-17T08:30:45.146Z,98353.94
2023-01-17T08:33:12.012Z,98366.75
2023-01-17T08:35:38.872Z,98366.41
2023-01-17T08:38:05.741Z,98363.00
2023-01-17T08:40:33.851Z,98367.56
2023-01-17T08:43:01.373Z,98370.63
2023-01-17T08:45:28.818Z,98368.22
2023-01-17T08:47:57.677Z,98377.28
2023-01-17T08:50:26.546Z,98374.53
2023-01-17T08:53:00.175Z,98382.31
2023-01-17T08:55:28.025Z,98384.91
2023-01-17T08:57:54.945Z,98386.34
2023-01-17T09:00:22.236Z,98388.81
2023-01-17T09:02:51.455Z,98384.59
2023-01-17T09:05:18.352Z,98388.00
2023-01-17T09:07:45.203Z,98400.97
2023-01-17T09:10:12.687Z,98398.53
2023-01-17T09:12:40.604Z,98400.63
2023-01-17T09:15:07.871Z,98403.72
2023-01-17T09:17:34.914Z,98405.50
2023-01-17T09:20:01.730Z,98406.16
2023-01-17T09:22:28.532Z,98414.75
2023-01-17T09:24:55.401Z,98420.75
2023-01-17T09:27:22.312Z,98423.16
2023-01-17T09:29:49.196Z,98414.72
2023-01-17T09:32:17.522Z,98418.63
2023-01-17T09:34:44.847Z,98418.78
2023-01-17T09:37:11.799Z,98434.84
2023-01-17T09:39:38.713Z,98423.13
2023-01-17T09:42:14.855Z,98433.72
2023-01-17T09:44:44.110Z,98440.19
2023-01-17T09:47:14.297Z,98447.63
2023-01-17T09:49:43.770Z,98448.59
2023-01-17T09:52:13.905Z,98452.03
2023-01-17T09:54:42.692Z,98448.09
2023-01-17T09:57:19.016Z,98456.88
2023-01-17T09:59:46.178Z,98459.31
2023-01-17T10:02:30.499Z,98463.53
2023-01-17T10:05:06.848Z,98459.63
2023-01-17T10:07:34.952Z,98466.25
2023-01-17T10:10:11.868Z,98467.91
2023-01-17T10:12:46.200Z,98466.47
2023-01-17T10:15:16.361Z,98473.28
2023-01-17T10:17:50.911Z,98461.25
2023-01-17T10:20:34.339Z,98473.44
2023-01-17T10:23:18.301Z,98473.91
2023-01-17T10:25:49.090Z,98478.59
2023-01-17T10:28:17.666Z,98479.25
2023-01-17T10:30:53.894Z,98477.94
2023-01-17T10:33:24.002Z,98479.56
2023-01-17T10:35:55.434Z,98476.63
2023-01-17T10:38:25.578Z,98478.09
2023-01-17T10:40:57.083Z,98485.41
2023-01-17T10:43:33.812Z,98486.03
2023-01-17T10:46:01.743Z,98485.56
2023-01-17T10:48:35.842Z,98489.59
2023-01-17T10:51:12.063Z,98488.47
2023-01-17T10:53:46.015Z,98492.50
2023-01-17T10:56:15.201Z,98485.50
2023-01-17T10:58:42.497Z,98485.50
2023-01-17T11:01:17.133Z,98484.53
2023-01-17T11:03:45.872Z,98478.84
2023-01-17T11:06:16.459Z,98484.84
2023-01-17T11:08:51.738Z,98479.28
2023-01-17T11:11:19.395Z,98484.34
2023-01-17T11:13:48.117Z,98482.19
2023-01-17T11:16:21.453Z,98490.50
2023-01-17T11:18:49.251Z,98490.81
2023-01-17T11:21:17.933Z,98487.84
2023-01-17T11:23:46.132Z,98487.34
2023-01-17T11:26:21.212Z,98486.66
2023-01-17T11:28:48.035Z,98486.81
2023-01-17T11:31:16.863Z,98472.47
2023-01-17T11:33:46.108Z,98472.94
2023-01-17T11:36:18.531Z,98474.56
2023-01-17T11:38:54.592Z,98471.59
2023-01-17T11:41:22.483Z,98467.88
2023-01-17T11:43:52.252Z,98463.13
2023-01-17T11:46:20.639Z,98469.78
2023-01-17T11:48:50.320Z,98470.25
2023-01-17T11:51:19.376Z,98472.69
2023-01-17T11:53:48.476Z,98466.31
2023-01-17T11:56:20.210Z,98468.91
2023-01-17T11:58:47.533Z,98463.88
2023-01-17T12:01:15.649Z,98462.72
2023-01-17T12:03:42.792Z,98465.94
2023-01-17T12:06:09.929Z,98460.56
2023-01-17T12:08:37.874Z,98464.00
2023-01-17T12:11:07.857Z,98450.81
2023-01-17T12:13:44.443Z,98462.66
2023-01-17T12:16:32.716Z,98457.28
2023-01-17T12:19:06.284Z,98456.94
2023-01-17T12:21:41.337Z,98453.34
2023-01-17T12:24:17.688Z,98449.41
2023-01-17T12:26:53.725Z,98454.59
2023-01-17T12:29:29.703Z,98458.84
2023-01-17T12:32:05.640Z,98454.28
2023-01-17T12:34:35.672Z,98449.25
2023-01-17T12:37:08.435Z,98449.88
2023-01-17T12:39:38.673Z,98459.13
2023-01-17T12:42:05.988Z,98457.34
2023-01-17T12:44:38.434Z,98451.97
2023-01-17T12:47:06.296Z,98462.19
2023-01-17T12:49:39.372Z,98463.81
2023-01-17T12:52:18.833Z,98462.84
2023-01-17T12:54:48.102Z,98459.25
2023-01-17T12:57:18.751Z,98461.50
2023-01-17T12:59:51.220Z,98459.53
2023-01-17T13:02:18.255Z,98455.59
2023-01-17T13:04:58.399Z,98456.56
2023-01-17T13:07:26.370Z,98447.78
2023-01-17T13:10:00.057Z,98455.59
2023-01-17T13:12:29.675Z,98458.03
2023-01-17T13:14:57.441Z,98458.66
2023-01-17T13:17:25.512Z,98460.28
2023-01-17T13:20:01.312Z,98457.50
2023-01-17T13:22:29.222Z,98460.72
2023-01-17T13:25:00.773Z,98459.94
2023-01-17T13:27:33.355Z,98452.47
2023-01-17T13:30:09.805Z,98458.47
2023-01-17T13:32:36.844Z,98462.88
2023-01-17T13:35:23.521Z,98465.31
2023-01-17T13:37:59.682Z,98476.88
2023-01-17T13:40:33.319Z,98472.03
2023-01-17T13:43:01.418Z,98466.81
2023-01-17T13:45:31.495Z,98473.00
2023-01-17T13:48:19.236Z,98478.06
2023-01-17T13:50:47.712Z,98479.03
2023-01-17T13:53:23.806Z,98479.03
2023-01-17T13:55:53.654Z,98483.25
2023-01-17T13:58:29.715Z,98490.44
2023-01-17T14:00:56.760Z,98488.19
2023-01-17T14:03:32.809Z,98485.91
2023-01-17T14:05:59.619Z,98487.38
2023-01-17T14:08:27.620Z,98491.94
2023-01-17T14:10:55.156Z,98494.53
2023-01-17T14:13:31.760Z,98496.97
2023-01-17T14:15:59.015Z,98496.97
2023-01-17T14:18:32.960Z,98493.41
2023-01-17T14:21:04.933Z,98501.81
2023-01-17T14:23:35.432Z,98504.44
2023-01-17T14:26:13.671Z,98509.84
2023-01-17T14:28:40.652Z,98503.97
2023-01-17T14:31:10.771Z,98504.34
2023-01-17T14:33:40.102Z,98504.88
2023-01-17T14:36:08.157Z,98506.16
2023-01-17T14:38:41.398Z,98496.28
2023-01-17T14:41:09.991Z,98494.84
2023-01-17T14:43:39.484Z,98504.28
2023-01-17T14:46:08.690Z,98495.16
2023-01-17T14:48:39.662Z,98504.81
2023-01-17T14:51:12.696Z,98507.28
2023-01-17T14:53:39.685Z,98513.81
2023-01-17T14:56:14.881Z,98517.56
2023-01-17T14:58:41.833Z,98512.34
2023-01-17T15:01:12.210Z,98519.69
2023-01-17T15:03:50.169Z,98514.66
2023-01-17T15:06:22.116Z,98517.09
2023-01-17T15:08:49.347Z,98522.28
2023-01-17T15:11:19.027Z,98523.13
2023-01-17T15:13:47.763Z,98524.25
2023-01-17T15:16:21.844Z,98530.44
2023-01-17T15:18:48.969Z,98522.81
2023-01-17T15:21:17.487Z,98533.22
2023-01-17T15:23:46.616Z,98533.38
2023-01-17T15:26:15.742Z,98545.75
2023-01-17T15:28:45.074Z,98544.97
2023-01-17T15:31:13.998Z,98547.56
2023-01-17T15:33:42.868Z,98549.34
2023-01-17T15:36:22.015Z,98548.53
2023-01-17T15:38:54.573Z,98550.50
2023-01-17T15:41:22.418Z,98550.03
2023-01-17T15:43:49.458Z,98561.56
2023-01-17T15:46:26.036Z,98557.38
2023-01-17T15:48:53.133Z,98553.75
2023-01-17T15:51:29.697Z,98555.53
2023-01-17T15:53:56.653Z,98563.53
2023-01-17T15:56:24.715Z,98557.53
2023-01-17T15:58:52.195Z,98561.91
2023-01-17T16:01:25.055Z,98570.69
2023-01-17T16:03:53.336Z,98579.00
2023-01-17T16:06:29.756Z,98572.00
2023-01-17T16:08:56.577Z,98568.75
2023-01-17T16:11:23.446Z,98573.34
2023-01-17T16:13:50.697Z,98575.94
2023-01-17T16:16:20.175Z,98583.56
2023-01-17T16:18:48.181Z,98582.13
2023-01-17T16:21:19.138Z,98590.25
2023-01-17T16:23:46.377Z,98593.03
2023-01-17T16:26:13.399Z,98586.19
2023-01-17T16:28:40.244Z,98597.56
2023-01-17T16:31:07.184Z,98595.16
2023-01-17T16:33:34.236Z,98597.09
2023-01-17T16:36:01.124Z,98594.19
2023-01-17T16:38:28.155Z,98599.38
2023-01-17T16:40:55.018Z,98611.72
2023-01-17T16:43:21.936Z,98609.47
2023-01-17T16:45:50.756Z,98614.03
2023-01-17T16:48:19.488Z,98615.81
2023-01-17T16:50:48.594Z,98619.22
2023-01-17T16:53:16.086Z,98624.63
2023-01-17T16:55:43.896Z,98629.16
2023-01-17T16:58:11.057Z,98634.50
2023-01-17T17:00:37.892Z,98634.84
2023-01-17T17:03:04.739Z,98637.59
2023-01-17T17:05:33.923Z,98625.75
2023-01-17T17:08:01.268Z,98636.31
2023-01-17T17:10:28.177Z,98631.44
2023-01-17T17:12:55.181Z,98643.78
2023-01-17T17:15:22.229Z,98645.56
2023-01-17T17:17:50.174Z,98643.94
2023-01-17T17:20:17.782Z,98647.50
2023-01-17T17:22:49.512Z,98652.09
2023-01-17T17:25:16.809Z,98651.41
2023-01-17T17:27:43.825Z,98658.59
2023-01-17T17:30:11.749Z,98664.59
2023-01-17T17:32:39.010Z,98670.78
2023-01-17T17:35:06.459Z,98671.41
2023-01-17T17:37:34.723Z,98667.03
2023-01-17T17:40:01.727Z,98668.81
2023-01-17T17:42:28.597Z,98666.22
2023-01-17T17:44:55.797Z,98664.41
2023-01-17T17:47:24.356Z,98675.47
2023-01-17T17:49:51.242Z,98679.19
2023-01-17T17:52:18.376Z,98676.59
2023-01-17T17:54:45.284Z,98677.41
2023-01-17T17:57:12.467Z,98686.84
2023-01-17T17:59:39.654Z,98686.19
2023-01-17T18:02:11.353Z,98692.38
2023-01-17T18:04:38.460Z,98703.75
2023-01-17T18:07:05.372Z,98708.94
2023-01-17T18:09:32.289Z,98715.59
2023-01-17T18:11:59.220Z,98719.97
2023-01-17T18:14:26.577Z,98725.03
2023-01-17T18:16:53.610Z,98724.06
2023-01-17T18:19:22.272Z,98722.44
2023-01-17T18:21:50.640Z,98728.44
2023-01-17T18:24:18.811Z,98740.78
2023-01-17T18:26:46.558Z,98740.63
2023-01-17T18:29:15.302Z,98740.63
2023-01-17T18:31:43.141Z,98743.22
2023-01-17T18:34:11.936Z,98749.41
2023-01-17T18:36:39.318Z,98753.78
2023-01-17T18:39:11.430Z,98750.06
2023-01-17T18:41:38.456Z,98762.25
2023-01-17T18:44:06.317Z,98769.06
2023-01-17T18:46:34.081Z,98762.25
2023-01-17T18:49:01.121Z,98764.16
2023-01-17T18:51:29.612Z,98763.22
2023-01-17T18:53:58.248Z,98763.69
2023-01-17T18:56:25.492Z,98765.81
2023-01-17T18:58:52.510Z,98773.13
2023-01-17T19:01:21.092Z,98772.59
2023-01-17T19:03:49.906Z,98768.53
2023-01-17T19:06:19.158Z,98766.91
2023-01-17T19:08:46.331Z,98777.31
2023-01-17T19:11:13.207Z,98778.13
2023-01-17T19:13:42.053Z,98776.16
2023-01-17T19:16:13.246Z,98781.22
2023-01-17T19:18:40.255Z,98784.78
2023-01-17T19:21:17.324Z,98789.34
2023-01-17T19:23:44.331Z,98790.31
2023-01-17T19:26:12.342Z,98786.06
2023-01-17T19:28:40.885Z,98792.09
2023-01-17T19:31:16.611Z,98788.38
2023-01-17T19:33:44.506Z,98789.00
2023-01-17T19:39:12.339Z,98785.91
2023-01-17T19:41:42.114Z,98784.13
2023-01-17T19:44:10.376Z,98791.13
2023-01-17T19:46:37.697Z,98795.50
2023-01-17T19:49:06.013Z,98791.28
2023-01-17T19:51:33.323Z,98801.03
2023-01-17T19:54:01.665Z,98801.19
2023-01-17T19:56:29.372Z,98798.56
2023-01-17T19:59:01.662Z,98803.63
2023-01-17T20:01:30.501Z,98802.81
2023-01-17T20:03:59.647Z,98815.94
2023-01-17T20:06:29.137Z,98812.69
2023-01-17T20:08:56.591Z,98805.88
2023-01-17T20:11:24.383Z,98803.28
2023-01-17T20:13:53.697Z,98807.81
2023-01-17T20:16:21.039Z,98815.59
2023-01-17T20:18:48.577Z,98814.78
2023-01-17T20:21:17.520Z,98818.88
2023-01-17T20:23:45.011Z,98811.88
2023-01-17T20:26:12.423Z,98816.56
2023-01-17T20:28:40.126Z,98820.31
2023-01-17T20:31:12.855Z,98825.34
2023-01-17T20:33:40.155Z,98827.28
2023-01-17T20:36:10.999Z,98828.94
2023-01-17T20:38:45.690Z,98823.72
2023-01-17T20:41:14.103Z,98822.09
2023-01-17T20:43:42.288Z,98819.50
2023-01-17T20:46:09.986Z,98828.25
2023-01-17T20:48:37.996Z,98837.97
2023-01-17T20:51:06.234Z,98837.97
2023-01-17T20:53:35.430Z,98841.56
2023-01-17T20:56:02.211Z,98842.53
2023-01-17T20:58:29.605Z,98840.91
2023-01-17T21:00:56.852Z,98853.88
2023-01-17T21:03:24.487Z,98849.00
2023-01-17T21:05:51.718Z,98854.22
2023-01-17T21:08:18.736Z,98854.22
2023-01-17T21:10:47.819Z,98849.97
2023-01-17T21:13:15.016Z,98846.06
2023-01-17T21:15:42.758Z,98852.50
2023-01-17T21:18:10.176Z,98856.25
2023-01-17T21:20:36.960Z,98861.44
2023-01-17T21:23:03.841Z,98859.00
2023-01-17T21:25:30.591Z,98857.34
2023-01-17T21:27:59.879Z,98856.41
2023-01-17T21:30:26.721Z,98853.81
2023-01-17T21:32:53.516Z,98858.34
2023-01-17T21:35:20.455Z,98862.41
2023-01-17T21:37:49.230Z,98866.16
2023-01-17T21:40:17.331Z,98866.28
2023-01-17T21:42:44.266Z,98868.88
2023-01-17T21:45:11.317Z,98876.53
2023-01-17T21:47:38.232Z,98873.25
2023-01-17T21:50:05.287Z,98874.09
2023-01-17T21:52:32.121Z,98877.63
2023-01-17T21:55:08.507Z,98874.38
2023-01-17T21:57:44.628Z,98873.13
2023-01-17T22:00:14.698Z,98873.94
2023-01-17T22:02:41.791Z,98879.28
2023-01-17T22:05:09.571Z,98879.28
2023-01-17T22:07:36.667Z,98875.03
2023-01-17T22:10:03.445Z,98870.81
2023-01-17T22:12:30.367Z,98869.81
2023-01-17T22:14:57.335Z,98867.38
2023-01-17T22:17:24.191Z,98868.31
2023-01-17T22:19:51.020Z,98873.38
2023-01-17T22:22:18.081Z,98881.97
2023-01-17T22:24:45.100Z,98874.84
2023-01-17T22:27:13.960Z,98880.69
2023-01-17T22:29:40.902Z,98883.28
2023-01-17T22:32:08.510Z,98883.28
2023-01-17T22:34:35.852Z,98889.16
2023-01-17T22:37:04.273Z,98884.25
2023-01-17T22:39:31.152Z,98892.06
2023-01-17T22:41:58.031Z,98894.66
2023-01-17T22:44:24.936Z,98897.25
2023-01-17T22:46:51.842Z,98887.16
2023-01-17T22:49:23.574Z,98896.88
2023-01-17T22:51:50.633Z,98889.09
2023-01-17T22:54:17.425Z,98881.31
2023-01-17T22:56:44.398Z,98884.88
2023-01-17T22:59:12.333Z,98896.06
2023-01-17T23:01:40.957Z,98895.25
2023-01-17T23:04:10.168Z,98886.63
2023-01-17T23:06:39.345Z,98889.41
2023-01-17T23:09:07.237Z,98895.09
2023-01-17T23:11:39.888Z,98907.13
2023-01-17T23:14:08.263Z,98907.13
2023-01-17T23:16:44.478Z,98892.50
2023-01-17T23:19:20.528Z,98900.44
2023-01-17T23:22:07.176Z,98902.06
2023-01-17T23:24:34.252Z,98895.09
2023-01-17T23:27:10.390Z,98896.75
2023-01-17T23:29:37.132Z,98907.13
2023-01-17T23:32:03.982Z,98897.69
2023-01-17T23:34:30.697Z,98897.03
2023-01-17T23:36:57.456Z,98902.53
2023-01-17T23:39:25.345Z,98905.13
2023-01-17T23:42:02.383Z,98908.41
2023-01-17T23:44:32.038Z,98905.13
2023-01-17T23:47:00.192Z,98907.06
2023-01-17T23:49:27.327Z,98911.75
2023-01-17T23:51:54.111Z,98918.06
2023-01-17T23:54:20.945Z,98917.41
2023-01-17T23:56:47.699Z,98913.84
2023-01-17T23:59:14.522Z,98909.28
